Edgar G. Obie (S71)
Chinook, MT
Field Elevation: 2416
Lat: 48°35.32N  Long: 109°15.02W
CTAF/Unicom Freq: 122.8000
   
    
Weather Advisories
2019-08-22   20:48 Z
Altimeter 29.77" Hg
Wind 320° @ 14 KT
Gusts 19 KT
Visibility 10 SM
Temperature 29° C (84° F)
Dewpoint 14° C (57° F)
Relative Humidity 40%
Density Altitude 4,700 feet
Condensation Altitude 9,900 feet
Heat Index: 29° C (84° F)
Wind and Runways
Indicated Runway = 26
Headwind = 7 kt
Crosswind = 12 kt
History
 
 
 
More Info
NOAA Forecast
 
 
About Us
Belfort Instrument
 
 
FAA Disclaimer: The data displayed is for advisory purposes only and is not to be used for flight planning or operations. For official data, please call (not available) to hear the current automated AWOS voice message.
  METAR S71 222048Z AUTO 32014G19KT 10 SM 29/14 A2977